Time;durP1;ratioP1;P1;durP2;ratioP2;P2;SDS_P1;SDS_P2;PMS_P1;PMS_P2;Temp;Humidity;BMP_temperature;BMP_pressure;BME280_temperature;BME280_humidity;BME280_pressure;Samples;Min_cycle;Max_cycle;Signal;HPM_P1;HPM_P2
2023/08/21 01:49:30;;;;;;;8.27;7.68;;;25.10;99.90;;;;;;4971429;28;20260;-79
2023/08/21 01:55:34;;;;;;;7.72;7.03;;;25.00;99.90;;;;;;4989269;28;20208;-78
2023/08/21 02:07:55;;;;;;;9.23;8.40;;;25.00;99.90;;;;;;5033505;28;20230;-79
2023/08/21 02:14:18;;;;;;;9.05;8.23;;;24.90;99.90;;;;;;5027396;28;20203;-79
2023/08/21 02:41:07;;;;;;;8.40;7.80;;;24.70;99.90;;;;;;5014596;28;20207;-80
2023/08/21 02:44:18;;;;;;;8.32;7.60;;;24.70;99.90;;;;;;5013041;28;20219;-78
2023/08/21 03:15:18;;;;;;;9.32;8.60;;;24.50;99.90;;;;;;4875149;29;20210;-78
2023/08/21 03:24:19;;;;;;;8.85;8.15;;;24.40;99.90;;;;;;4891877;29;20209;-79
2023/08/21 03:26:46;;;;;;;8.38;7.78;;;24.40;99.90;;;;;;4977458;28;20218;-77
2023/08/21 03:29:13;;;;;;;8.10;7.40;;;24.30;99.90;;;;;;5070885;28;20267;-77
2023/08/21 03:31:41;;;;;;;8.10;7.50;;;24.30;99.90;;;;;;5068405;28;20206;-78
2023/08/21 03:34:09;;;;;;;8.38;7.75;;;24.30;99.90;;;;;;5071126;28;20202;-78
2023/08/21 03:36:38;;;;;;;8.48;7.80;;;24.20;99.90;;;;;;5069074;28;20609;-78
2023/08/21 03:39:05;;;;;;;8.95;8.25;;;24.30;99.90;;;;;;5073207;28;20255;-79
2023/08/21 03:41:32;;;;;;;9.48;8.65;;;24.30;99.90;;;;;;5065697;28;20202;-79
2023/08/21 03:43:59;;;;;;;9.52;8.73;;;24.30;99.90;;;;;;5074484;28;20244;-78
2023/08/21 03:46:26;;;;;;;9.88;8.93;;;24.30;99.90;;;;;;5073511;28;20280;-79
2023/08/21 03:48:55;;;;;;;9.32;8.63;;;24.40;99.90;;;;;;5075328;28;20210;-79
2023/08/21 03:51:22;;;;;;;9.45;8.75;;;24.40;99.90;;;;;;5075015;28;20244;-79
2023/08/21 03:53:48;;;;;;;8.63;7.93;;;24.40;99.90;;;;;;5073284;28;20709;-80
2023/08/21 03:56:15;;;;;;;9.27;8.57;;;24.30;99.90;;;;;;5072640;28;20263;-78
2023/08/21 03:58:52;;;;;;;8.85;8.25;;;24.30;99.90;;;;;;5073472;28;20202;-79
2023/08/21 04:01:19;;;;;;;9.23;8.52;;;24.20;99.90;;;;;;5043992;28;20202;-77
2023/08/21 04:03:46;;;;;;;8.45;7.75;;;24.20;99.90;;;;;;5071109;28;20241;-78
2023/08/21 04:06:14;;;;;;;8.50;7.80;;;24.10;99.90;;;;;;5070643;28;20252;-78
2023/08/21 04:08:41;;;;;;;8.27;7.68;;;23.90;99.90;;;;;;5072410;28;20222;-78
2023/08/21 04:11:08;;;;;;;8.95;8.30;;;23.70;99.90;;;;;;5081414;28;20215;-78
2023/08/21 04:13:35;;;;;;;8.65;8.05;;;23.60;99.90;;;;;;5076571;28;20211;-78
2023/08/21 04:16:02;;;;;;;8.75;8.10;;;23.50;99.90;;;;;;5069263;28;20264;-78
2023/08/21 04:18:29;;;;;;;9.00;8.30;;;23.50;99.90;;;;;;5071587;28;20214;-78
2023/08/21 04:20:56;;;;;;;8.95;8.25;;;23.40;99.90;;;;;;5070586;28;20199;-77
2023/08/21 04:23:24;;;;;;;7.90;7.30;;;23.40;99.90;;;;;;5067298;28;20195;-78
2023/08/21 04:25:51;;;;;;;8.98;8.27;;;23.40;99.90;;;;;;5072772;28;20221;-79
2023/08/21 04:28:18;;;;;;;9.13;8.23;;;23.40;99.90;;;;;;5068472;28;20269;-78
2023/08/21 04:30:45;;;;;;;8.98;8.27;;;23.30;99.90;;;;;;5067413;28;20222;-77
2023/08/21 04:33:12;;;;;;;8.88;8.18;;;23.30;99.90;;;;;;5070220;28;20183;-77
2023/08/21 04:35:39;;;;;;;9.80;9.00;;;23.30;99.90;;;;;;5071481;28;20202;-78
2023/08/21 04:38:07;;;;;;;9.27;8.57;;;23.30;99.90;;;;;;5071542;28;20232;-78
2023/08/21 04:40:35;;;;;;;8.88;8.27;;;23.20;99.90;;;;;;5070402;28;20335;-77
2023/08/21 04:43:02;;;;;;;8.60;7.90;;;23.20;99.90;;;;;;5068642;28;20198;-76
2023/08/21 04:45:29;;;;;;;8.98;8.20;;;23.10;99.90;;;;;;5064915;28;20198;-77
2023/08/21 04:47:56;;;;;;;8.43;7.72;;;23.10;99.90;;;;;;5065702;28;20263;-78
2023/08/21 04:50:23;;;;;;;8.27;7.68;;;23.10;99.90;;;;;;5069343;28;20676;-79
2023/08/21 04:52:50;;;;;;;8.77;8.07;;;23.10;99.90;;;;;;5065844;28;20657;-78
2023/08/21 04:55:17;;;;;;;7.82;7.22;;;23.10;99.90;;;;;;5063233;28;20191;-78
2023/08/21 04:57:45;;;;;;;8.98;8.27;;;23.20;99.90;;;;;;5067747;28;20209;-78
2023/08/21 05:00:13;;;;;;;7.32;6.82;;;23.20;99.90;;;;;;5064977;28;20203;-77
2023/08/21 05:02:40;;;;;;;8.27;7.68;;;23.20;99.90;;;;;;5070792;28;20649;-77
2023/08/21 05:05:08;;;;;;;9.05;8.27;;;23.30;99.90;;;;;;5072281;28;20202;-77
2023/08/21 05:07:36;;;;;;;8.82;7.97;;;23.30;99.90;;;;;;5063109;28;20265;-77
2023/08/21 05:10:03;;;;;;;9.00;8.32;;;23.40;99.90;;;;;;5072786;28;20222;-78
2023/08/21 05:12:30;;;;;;;9.18;8.48;;;23.50;99.90;;;;;;5071136;28;20214;-78
2023/08/21 05:14:58;;;;;;;8.02;7.43;;;23.70;99.90;;;;;;5058618;28;20245;-79
2023/08/21 05:17:26;;;;;;;8.50;7.80;;;23.90;99.90;;;;;;5063118;28;20219;-78
2023/08/21 05:19:53;;;;;;;8.00;7.32;;;24.00;99.90;;;;;;5069766;28;20210;-78
2023/08/21 05:22:20;;;;;;;9.00;8.20;;;24.30;99.90;;;;;;5069258;28;20530;-77
2023/08/21 05:24:47;;;;;;;8.35;7.75;;;24.50;99.90;;;;;;5066389;28;20264;-77
2023/08/21 05:27:14;;;;;;;8.50;7.85;;;24.60;99.90;;;;;;5065564;28;20552;-77
2023/08/21 05:29:41;;;;;;;8.38;7.78;;;24.70;99.90;;;;;;5060862;28;20223;-78
2023/08/21 05:32:09;;;;;;;7.43;6.82;;;24.80;99.90;;;;;;5069789;28;20202;-79
2023/08/21 05:34:37;;;;;;;8.07;7.47;;;24.90;99.90;;;;;;5071513;28;20198;-79
2023/08/21 05:37:04;;;;;;;7.85;7.15;;;25.00;99.90;;;;;;5069971;28;20229;-79
2023/08/21 05:39:31;;;;;;;9.35;7.28;;;25.10;99.90;;;;;;5066366;28;20220;-79
2023/08/21 05:41:58;;;;;;;6.70;6.15;;;25.20;99.90;;;;;;5071858;28;20257;-79
2023/08/21 05:44:25;;;;;;;6.78;6.28;;;25.30;99.90;;;;;;5070456;28;20194;-80
2023/08/21 05:46:52;;;;;;;6.60;6.00;;;25.40;99.90;;;;;;5069332;28;20692;-79
2023/08/21 05:49:20;;;;;;;7.35;6.68;;;25.60;99.90;;;;;;5066946;28;20210;-79
2023/08/21 05:51:47;;;;;;;6.93;6.32;;;25.90;99.90;;;;;;5066710;28;20228;-79
2023/08/21 05:54:14;;;;;;;6.75;6.18;;;26.00;99.90;;;;;;5066452;28;20219;-79
2023/08/21 05:56:41;;;;;;;6.88;6.38;;;26.00;99.90;;;;;;5059340;28;20219;-78
2023/08/21 05:59:11;;;;;;;7.32;6.72;;;26.10;99.90;;;;;;5060789;28;20252;-79
2023/08/21 06:54:34;;;;;;;6.97;6.32;;;28.00;99.90;;;;;;5027925;28;20218;-75
2023/08/21 06:57:01;;;;;;;9.45;6.72;;;27.90;99.90;;;;;;5038657;28;20207;-73
2023/08/21 06:59:28;;;;;;;6.78;6.18;;;28.00;99.90;;;;;;5017723;28;20289;-73
2023/08/21 07:01:55;;;;;;;7.47;6.32;;;28.00;99.90;;;;;;5039555;28;20196;-72
2023/08/21 07:04:22;;;;;;;6.88;6.28;;;28.00;99.90;;;;;;5040071;28;20769;-74
2023/08/21 07:06:50;;;;;;;7.38;6.78;;;28.00;99.90;;;;;;5043254;28;20252;-72
2023/08/21 07:09:17;;;;;;;7.25;6.55;;;27.90;99.90;;;;;;5019100;28;20218;-72
2023/08/21 07:11:45;;;;;;;6.75;6.25;;;27.70;99.90;;;;;;5037117;28;20199;-74
2023/08/21 07:14:13;;;;;;;7.63;6.53;;;27.60;99.90;;;;;;5040176;28;20215;-73
2023/08/21 07:16:40;;;;;;;7.60;6.70;;;27.60;99.90;;;;;;5041208;28;20286;-76
2023/08/21 07:19:07;;;;;;;7.05;6.43;;;27.70;99.90;;;;;;5035988;28;20206;-77
2023/08/21 07:21:36;;;;;;;6.90;6.30;;;27.90;99.90;;;;;;5041260;28;20211;-75
2023/08/21 07:24:04;;;;;;;7.05;6.35;;;28.20;99.90;;;;;;5013756;28;21192;-73
2023/08/21 07:26:31;;;;;;;6.90;6.20;;;28.40;99.90;;;;;;5040205;28;20199;-74
2023/08/21 07:28:59;;;;;;;7.10;6.38;;;28.50;99.90;;;;;;5019268;28;20243;-77
2023/08/21 07:31:27;;;;;;;7.03;6.30;;;28.40;99.90;;;;;;5023019;28;20318;-75
2023/08/21 07:33:54;;;;;;;7.03;6.18;;;28.50;99.90;;;;;;5037909;28;20220;-73
2023/08/21 07:36:21;;;;;;;6.93;6.30;;;28.50;99.90;;;;;;5019390;28;20249;-74
2023/08/21 07:38:48;;;;;;;6.63;5.93;;;28.60;99.90;;;;;;5038181;28;20210;-74
2023/08/21 07:41:15;;;;;;;6.95;6.35;;;28.80;99.90;;;;;;5018961;28;20803;-75
2023/08/21 07:43:44;;;;;;;7.30;6.70;;;29.00;99.90;;;;;;5023120;28;20306;-74
2023/08/21 07:46:15;;;;;;;7.60;6.63;;;28.90;99.90;;;;;;5041359;28;20215;-75
2023/08/21 07:48:43;;;;;;;7.55;6.85;;;28.90;99.90;;;;;;5019468;28;20218;-74
2023/08/21 07:51:10;;;;;;;7.10;6.50;;;29.00;99.90;;;;;;5039350;28;20253;-76
2023/08/21 07:53:38;;;;;;;6.63;6.13;;;29.10;99.90;;;;;;5036707;28;20231;-75
2023/08/21 07:56:06;;;;;;;7.72;7.03;;;29.20;99.90;;;;;;5001871;28;20230;-75
2023/08/21 07:58:33;;;;;;;7.13;6.53;;;29.10;99.90;;;;;;5035139;28;20465;-74
2023/08/21 08:01:01;;;;;;;7.28;6.57;;;29.00;99.90;;;;;;5030775;28;20215;-74
2023/08/21 08:03:29;;;;;;;7.38;6.78;;;28.90;99.90;;;;;;5030908;28;20207;-75
2023/08/21 08:05:56;;;;;;;7.68;6.97;;;29.10;99.90;;;;;;5033760;28;20195;-75
2023/08/21 08:08:23;;;;;;;8.15;7.35;;;29.30;99.90;;;;;;5014844;28;20289;-73
2023/08/21 08:10:50;;;;;;;7.13;6.63;;;29.40;99.90;;;;;;5035148;28;20223;-73
2023/08/21 08:13:18;;;;;;;7.35;6.70;;;29.50;99.90;;;;;;5035143;28;20216;-74
2023/08/21 08:15:45;;;;;;;7.90;7.03;;;29.60;99.90;;;;;;5035762;28;20242;-74
2023/08/21 08:18:13;;;;;;;8.43;6.95;;;29.70;99.90;;;;;;5033112;28;20239;-74
2023/08/21 08:20:42;;;;;;;8.07;7.47;;;29.90;99.90;;;;;;5038764;28;20199;-75
2023/08/21 08:23:09;;;;;;;8.10;7.50;;;29.90;99.90;;;;;;5023399;28;20314;-73
2023/08/21 08:25:36;;;;;;;7.45;6.85;;;29.80;99.90;;;;;;5047229;28;20245;-72
2023/08/21 08:28:04;;;;;;;7.50;6.80;;;30.00;99.90;;;;;;5031806;28;20648;-76
2023/08/21 08:30:32;;;;;;;8.30;7.55;;;30.20;99.90;;;;;;5046054;28;20626;-74
2023/08/21 08:32:59;;;;;;;7.55;6.95;;;30.30;99.90;;;;;;5045836;28;20199;-73
2023/08/21 08:35:26;;;;;;;7.95;7.22;;;30.40;99.90;;;;;;5045373;28;20707;-73
2023/08/21 08:37:54;;;;;;;8.57;7.85;;;30.50;99.90;;;;;;5041057;28;20195;-75
2023/08/21 08:40:23;;;;;;;8.55;7.55;;;30.50;99.90;;;;;;5039413;28;20249;-77
2023/08/21 08:42:50;;;;;;;8.48;7.75;;;30.40;99.90;;;;;;5043671;28;20203;-73
2023/08/21 08:50:30;;;;;;;8.10;7.47;;;30.40;99.90;;;;;;5309359;22;20233;-72
2023/08/21 08:53:02;;;;;;;8.05;7.30;;;30.40;99.90;;;;;;5060194;28;20240;-73
2023/08/21 08:58:05;;;;;;;8.70;7.93;;;30.40;99.90;;;;;;5446835;22;20697;-72
2023/08/21 09:00:33;;;;;;;6.82;6.32;;;30.50;99.90;;;;;;5105997;28;20192;-73
2023/08/21 09:03:00;;;;;;;7.57;6.88;;;30.60;99.90;;;;;;5110924;28;20308;-72
2023/08/21 09:05:27;;;;;;;7.85;7.05;;;30.80;99.90;;;;;;5102896;28;20626;-72
2023/08/21 09:08:12;;;;;;;7.60;6.93;;;31.00;99.90;;;;;;5084567;28;20201;-74
2023/08/21 09:10:40;;;;;;;8.25;6.82;;;31.20;99.90;;;;;;5098174;28;20209;-72
2023/08/21 09:13:12;;;;;;;8.27;7.63;;;31.20;99.90;;;;;;5105899;28;20235;-72
2023/08/21 09:15:39;;;;;;;8.02;7.32;;;31.20;99.90;;;;;;5103946;28;20229;-72
2023/08/21 09:18:10;;;;;;;7.85;7.13;;;31.10;99.90;;;;;;5102406;28;20250;-72
2023/08/21 09:20:37;;;;;;;7.30;6.60;;;31.20;99.90;;;;;;5086199;28;20640;-72
2023/08/21 09:23:06;;;;;;;7.82;7.13;;;31.40;99.90;;;;;;5103161;28;20192;-72
2023/08/21 09:25:39;;;;;;;7.90;7.10;;;31.50;99.90;;;;;;5074295;28;20305;-72
2023/08/21 09:28:07;;;;;;;8.52;7.78;;;31.50;99.90;;;;;;5092992;28;20198;-72
2023/08/21 09:30:48;;;;;;;8.00;7.40;;;31.40;99.90;;;;;;5081691;28;20216;-74
2023/08/21 09:33:19;;;;;;;7.68;7.05;;;31.40;99.90;;;;;;5088060;28;20636;-73
2023/08/21 09:35:46;;;;;;;7.00;6.50;;;31.50;99.90;;;;;;5113355;28;20203;-72
2023/08/21 09:38:15;;;;;;;7.95;7.32;;;31.60;99.90;;;;;;5103223;28;20307;-72
2023/08/21 09:40:43;;;;;;;7.72;7.07;;;31.70;99.90;;;;;;5106691;28;20201;-72
2023/08/21 09:43:11;;;;;;;8.30;7.63;;;31.90;99.90;;;;;;5094585;28;20205;-72
2023/08/21 09:48:14;;;;;;;7.50;6.90;;;32.40;99.90;;;;;;5316147;22;20229;-72
2023/08/21 09:50:42;;;;;;;7.65;6.95;;;32.50;99.90;;;;;;5071796;28;20272;-72
2023/08/21 09:53:10;;;;;;;7.07;6.55;;;32.40;99.90;;;;;;5054645;28;20211;-72
2023/08/21 09:55:40;;;;;;;7.05;6.32;;;32.40;99.90;;;;;;5072092;28;20788;-72
2023/08/21 09:58:08;;;;;;;8.13;7.30;;;32.60;99.90;;;;;;5070134;28;20583;-73
2023/08/21 10:00:37;;;;;;;8.30;7.70;;;32.80;99.90;;;;;;5072537;28;20198;-72
2023/08/21 10:03:05;;;;;;;8.23;7.15;;;32.80;99.90;;;;;;5071662;28;20218;-72
2023/08/21 10:08:10;;;;;;;9.45;7.72;;;33.00;99.90;;;;;;5393984;22;20224;-73
2023/08/21 10:10:39;;;;;;;9.15;8.23;;;33.00;99.90;;;;;;5133031;28;20753;-72
2023/08/21 10:13:08;;;;;;;8.73;7.93;;;32.80;99.90;;;;;;5114185;28;20197;-72
2023/08/21 10:18:46;;;;;;;8.05;7.25;;;32.90;99.90;;;;;;5079838;22;20229;-72
2023/08/21 10:21:15;;;;;;;7.90;7.20;;;33.20;99.90;;;;;;5069543;28;20293;-73
2023/08/21 10:26:20;;;;;;;7.55;6.95;;;33.40;99.90;;;;;;5083200;28;20774;-74
2023/08/21 10:28:52;;;;;;;7.95;7.28;;;33.40;99.90;;;;;;5083596;28;20213;-72
2023/08/21 10:31:36;;;;;;;7.82;7.20;;;33.50;99.90;;;;;;5083297;28;20197;-73
2023/08/21 10:34:04;;;;;;;7.90;7.20;;;33.40;99.90;;;;;;5083343;28;20209;-72
2023/08/21 10:37:02;;;;;;;7.35;6.72;;;33.40;99.90;;;;;;5095940;28;20262;-72
2023/08/21 10:39:31;;;;;;;7.72;7.03;;;33.80;99.90;;;;;;5079215;28;20616;-73
2023/08/21 10:42:02;;;;;;;7.60;7.00;;;34.10;99.90;;;;;;5100440;28;20194;-72
2023/08/21 10:47:18;;;;;;;7.93;7.30;;;33.60;99.90;;;;;;5862389;22;20602;-72
2023/08/21 10:49:47;;;;;;;7.90;7.05;;;33.60;99.90;;;;;;5066500;28;20295;-72
2023/08/21 10:52:14;;;;;;;8.48;7.78;;;33.50;99.90;;;;;;5060739;28;20656;-73
2023/08/21 10:54:47;;;;;;;9.40;8.20;;;33.50;99.90;;;;;;5065450;28;20226;-72
2023/08/21 10:57:15;;;;;;;8.35;7.65;;;33.40;99.90;;;;;;5041070;28;20210;-72
2023/08/21 10:59:56;;;;;;;8.50;7.80;;;33.40;99.90;;;;;;5035649;28;20230;-71
2023/08/21 11:02:24;;;;;;;8.85;8.13;;;33.60;99.90;;;;;;5047401;28;20332;-72
2023/08/21 11:07:28;;;;;;;7.93;7.22;;;34.00;99.90;;;;;;5268244;22;20245;-73
2023/08/21 11:09:56;;;;;;;9.98;7.35;;;34.00;99.90;;;;;;5064945;28;20230;-72
2023/08/21 11:12:26;;;;;;;9.38;7.43;;;33.70;99.90;;;;;;5090861;28;20715;-72
2023/08/21 11:14:53;;;;;;;7.75;7.05;;;33.60;99.90;;;;;;5061971;28;20272;-72
2023/08/21 11:17:23;;;;;;;8.05;7.43;;;33.60;99.90;;;;;;5052242;28;20203;-71
2023/08/21 11:19:51;;;;;;;8.13;7.05;;;33.50;99.90;;;;;;5054141;28;20194;-72
2023/08/21 11:22:18;;;;;;;8.05;7.35;;;33.70;99.90;;;;;;5060671;28;20206;-72
2023/08/21 11:24:47;;;;;;;8.00;7.20;;;33.60;99.90;;;;;;5035528;28;20215;-72
2023/08/21 11:27:15;;;;;;;7.25;6.55;;;33.80;99.90;;;;;;5052923;28;20206;-74
2023/08/21 11:29:45;;;;;;;7.65;6.85;;;33.70;99.90;;;;;;5050228;28;20215;-72
2023/08/21 11:32:15;;;;;;;7.75;7.15;;;33.80;99.90;;;;;;5053775;28;20199;-72
2023/08/21 11:34:44;;;;;;;8.10;7.28;;;33.80;99.90;;;;;;5064734;28;20268;-72
2023/08/21 11:37:11;;;;;;;7.45;6.85;;;33.90;99.90;;;;;;5056152;28;20207;-73
2023/08/21 11:39:46;;;;;;;10.85;7.85;;;33.90;99.90;;;;;;5045216;28;20203;-72
2023/08/21 11:42:14;;;;;;;7.90;7.30;;;33.90;99.90;;;;;;5053535;28;20195;-72
2023/08/21 11:44:47;;;;;;;7.18;6.60;;;34.00;99.90;;;;;;5051460;28;20215;-72
2023/08/21 11:47:16;;;;;;;7.70;7.10;;;34.10;99.90;;;;;;5053038;28;20249;-72
2023/08/21 11:49:44;;;;;;;9.27;6.72;;;34.00;99.90;;;;;;5053481;28;20218;-73
2023/08/21 11:52:11;;;;;;;8.38;7.68;;;33.90;99.90;;;;;;5058443;28;20191;-74
2023/08/21 11:54:40;;;;;;;7.57;6.97;;;33.80;99.90;;;;;;5035640;28;20219;-71
2023/08/21 11:57:13;;;;;;;8.43;7.63;;;34.10;99.90;;;;;;5058718;28;20248;-72
2023/08/21 11:59:40;;;;;;;8.10;7.40;;;34.40;99.90;;;;;;5049770;28;20240;-72
2023/08/21 12:02:15;;;;;;;8.57;7.78;;;34.40;99.90;;;;;;5053146;28;20211;-72
2023/08/21 12:07:56;;;;;;;9.13;8.32;;;33.90;99.90;;;;;;5479694;22;20218;-73
2023/08/21 12:10:24;;;;;;;8.73;7.93;;;34.00;99.90;;;;;;5079504;28;20283;-71
2023/08/21 12:12:51;;;;;;;7.70;7.10;;;33.80;99.90;;;;;;5073474;28;20198;-71
2023/08/21 12:15:18;;;;;;;7.50;6.78;;;33.90;99.90;;;;;;5068727;28;20259;-71
2023/08/21 12:17:47;;;;;;;7.25;6.65;;;34.00;99.90;;;;;;5072905;28;20580;-71
2023/08/21 12:20:14;;;;;;;7.53;6.82;;;34.10;99.90;;;;;;5072661;28;20186;-72
2023/08/21 12:22:42;;;;;;;7.53;6.82;;;34.20;99.90;;;;;;5062182;28;20648;-72
2023/08/21 12:27:57;;;;;;;7.93;7.07;;;34.10;99.90;;;;;;5445038;22;20582;-73
2023/08/21 12:30:24;;;;;;;8.45;7.75;;;34.10;99.90;;;;;;5044704;28;20223;-73
2023/08/21 12:32:53;;;;;;;8.13;7.43;;;34.00;99.90;;;;;;5052568;28;20736;-71
2023/08/21 12:35:20;;;;;;;7.63;6.75;;;34.00;99.90;;;;;;5046858;28;20705;-72
2023/08/21 12:37:48;;;;;;;7.40;6.72;;;34.10;99.90;;;;;;5045345;28;20199;-71
2023/08/21 12:40:15;;;;;;;7.47;6.88;;;34.20;99.90;;;;;;5042942;28;20188;-73
2023/08/21 12:42:42;;;;;;;7.72;7.13;;;34.30;99.90;;;;;;5041287;28;20195;-73
2023/08/21 12:45:11;;;;;;;9.07;8.20;;;34.50;99.90;;;;;;5018777;28;20319;-72
2023/08/21 12:47:38;;;;;;;8.20;7.50;;;34.40;99.90;;;;;;5038105;28;20206;-77
2023/08/21 12:50:08;;;;;;;7.82;7.15;;;34.20;99.90;;;;;;5042956;28;20223;-72
2023/08/21 12:52:35;;;;;;;8.88;8.07;;;34.20;99.90;;;;;;5028151;28;20280;-72
2023/08/21 12:55:05;;;;;;;8.20;7.55;;;34.20;99.90;;;;;;5042844;28;20219;-72
2023/08/21 12:57:33;;;;;;;7.60;7.00;;;34.20;99.90;;;;;;5038066;28;20191;-74
2023/08/21 13:00:00;;;;;;;8.68;7.90;;;34.10;99.90;;;;;;5028755;28;20240;-75
2023/08/21 13:02:27;;;;;;;8.93;8.13;;;34.10;99.90;;;;;;5043826;28;20244;-73
2023/08/21 13:04:54;;;;;;;8.65;7.95;;;34.00;99.90;;;;;;5037325;28;20326;-74
2023/08/21 13:07:22;;;;;;;8.38;7.50;;;34.00;99.90;;;;;;5033773;28;20203;-74
2023/08/21 13:09:49;;;;;;;7.90;7.28;;;34.10;99.90;;;;;;5036952;28;20297;-72
2023/08/21 13:12:16;;;;;;;8.32;7.60;;;34.20;99.90;;;;;;5034672;28;20273;-72
2023/08/21 13:14:44;;;;;;;8.18;7.47;;;34.30;99.90;;;;;;5037622;28;20285;-73
2023/08/21 13:17:11;;;;;;;7.95;7.25;;;34.30;99.90;;;;;;5032950;28;20602;-73
2023/08/21 13:19:38;;;;;;;7.70;7.00;;;34.40;99.90;;;;;;5040546;28;20543;-73
2023/08/21 13:22:05;;;;;;;8.02;7.32;;;34.40;99.90;;;;;;5039625;28;20194;-73
2023/08/21 13:27:15;;;;;;;8.27;7.50;;;34.50;99.90;;;;;;5140802;23;20222;-72
2023/08/21 13:29:42;;;;;;;7.97;7.20;;;34.60;99.90;;;;;;5079415;28;20209;-72
2023/08/21 13:32:10;;;;;;;7.97;7.13;;;34.60;99.90;;;;;;5080524;28;20288;-73
2023/08/21 13:34:37;;;;;;;8.13;7.32;;;34.60;99.90;;;;;;5087000;28;20228;-73
2023/08/21 13:37:05;;;;;;;8.18;7.47;;;34.70;99.90;;;;;;5092145;28;20243;-73
2023/08/21 13:39:32;;;;;;;8.05;7.25;;;34.70;99.90;;;;;;5065126;28;20652;-72
2023/08/21 13:41:59;;;;;;;7.90;7.20;;;34.60;99.90;;;;;;5084714;28;20904;-73
2023/08/21 13:47:09;;;;;;;7.90;7.20;;;34.80;99.90;;;;;;5854592;22;20703;-71
2023/08/21 13:49:36;;;;;;;7.13;6.53;;;35.10;99.90;;;;;;5061679;28;20202;-72
2023/08/21 13:52:04;;;;;;;7.32;6.75;;;35.10;99.90;;;;;;5043022;28;20664;-73
2023/08/21 13:54:31;;;;;;;7.13;6.53;;;35.20;99.90;;;;;;5066771;28;20222;-72
2023/08/21 13:56:59;;;;;;;7.22;6.63;;;35.10;99.90;;;;;;5064132;28;20205;-74
2023/08/21 13:59:26;;;;;;;8.30;7.60;;;35.20;99.90;;;;;;5066772;28;20671;-72
2023/08/21 14:01:53;;;;;;;7.13;6.55;;;35.10;99.90;;;;;;5065283;28;20674;-76
2023/08/21 14:04:22;;;;;;;7.13;6.43;;;35.10;99.90;;;;;;5065232;28;20222;-75
2023/08/21 14:06:49;;;;;;;7.63;6.88;;;35.20;99.90;;;;;;5071024;28;20223;-72
2023/08/21 14:09:25;;;;;;;7.50;6.90;;;35.20;99.90;;;;;;5073940;28;20201;-75
2023/08/21 14:11:52;;;;;;;11.23;6.75;;;35.00;99.90;;;;;;5067425;28;20690;-73
2023/08/21 14:14:19;;;;;;;7.32;6.63;;;35.00;99.90;;;;;;5074557;28;20214;-73
2023/08/21 14:16:46;;;;;;;6.80;6.20;;;35.00;99.90;;;;;;5071831;28;20205;-73
2023/08/21 14:19:13;;;;;;;6.20;5.70;;;35.10;99.90;;;;;;5073712;28;20228;-72
2023/08/21 14:21:42;;;;;;;6.68;5.78;;;35.10;99.90;;;;;;5068181;28;20198;-72
2023/08/21 14:24:09;;;;;;;8.60;6.80;;;35.20;99.90;;;;;;5289024;22;21260;-73
2023/08/21 14:26:36;;;;;;;8.07;6.45;;;34.90;99.90;;;;;;5046255;28;20211;-72
2023/08/21 14:29:04;;;;;;;6.60;6.00;;;35.00;99.90;;;;;;5052723;28;20195;-73
2023/08/21 14:31:31;;;;;;;6.05;5.50;;;35.30;99.90;;;;;;5056825;28;20219;-72
2023/08/21 14:33:58;;;;;;;5.80;5.30;;;35.50;99.90;;;;;;5055942;28;20264;-73
2023/08/21 14:36:26;;;;;;;5.53;5.03;;;35.70;99.90;;;;;;5059459;28;20285;-75
2023/08/21 14:38:54;;;;;;;4.60;4.30;;;35.60;99.90;;;;;;5056522;28;20199;-72
2023/08/21 14:41:21;;;;;;;5.22;4.45;;;35.60;99.90;;;;;;5057174;28;20690;-71
2023/08/21 14:43:49;;;;;;;4.55;4.13;;;35.60;99.90;;;;;;5052779;28;20306;-71
2023/08/21 14:46:16;;;;;;;4.68;4.28;;;35.50;99.90;;;;;;5056917;28;20411;-71
2023/08/21 14:48:43;;;;;;;5.07;4.25;;;35.50;99.90;;;;;;5055142;28;20229;-71
2023/08/21 14:51:10;;;;;;;5.43;4.93;;;35.50;99.90;;;;;;5055010;28;20292;-71
2023/08/21 14:53:37;;;;;;;4.53;4.05;;;35.50;99.90;;;;;;5053779;28;20222;-72
2023/08/21 14:56:06;;;;;;;5.30;4.25;;;35.50;99.90;;;;;;5054390;28;20230;-72
2023/08/21 14:58:33;;;;;;;4.72;4.32;;;35.40;99.90;;;;;;5045972;28;20199;-71
2023/08/21 15:01:00;;;;;;;4.68;4.20;;;35.30;99.90;;;;;;5055523;28;20253;-72
2023/08/21 15:03:27;;;;;;;4.80;4.40;;;35.30;99.90;;;;;;5049860;28;20665;-76
2023/08/21 15:05:54;;;;;;;4.85;4.47;;;35.20;99.90;;;;;;5046676;28;20199;-71
2023/08/21 15:08:21;;;;;;;4.32;4.03;;;35.10;99.90;;;;;;5035358;28;20294;-74
2023/08/21 15:10:48;;;;;;;4.07;3.75;;;35.10;99.90;;;;;;5043098;28;20222;-73
2023/08/21 15:13:16;;;;;;;3.92;3.60;;;35.00;99.90;;;;;;5050826;28;20206;-71
2023/08/21 15:15:43;;;;;;;3.97;3.67;;;35.10;99.90;;;;;;5051200;28;20202;-71
2023/08/21 15:18:10;;;;;;;3.70;3.40;;;35.00;99.90;;;;;;5051446;28;20213;-72
2023/08/21 15:20:37;;;;;;;3.75;3.42;;;35.10;99.90;;;;;;5031240;28;20661;-72
2023/08/21 15:23:05;;;;;;;3.58;3.28;;;35.00;99.90;;;;;;5048649;28;20737;-72
2023/08/21 15:25:32;;;;;;;3.80;3.50;;;34.90;99.90;;;;;;5051245;28;20223;-72
2023/08/21 15:27:59;;;;;;;4.07;3.78;;;34.80;99.90;;;;;;5053523;28;20199;-71
2023/08/21 15:30:27;;;;;;;4.13;3.83;;;34.70;99.90;;;;;;5029383;28;20203;-73
2023/08/21 15:32:54;;;;;;;3.92;3.60;;;34.60;99.90;;;;;;5035226;28;20296;-73
2023/08/21 15:35:22;;;;;;;3.90;3.58;;;34.40;99.90;;;;;;5041471;28;20313;-73
2023/08/21 15:37:48;;;;;;;3.67;3.40;;;34.30;99.90;;;;;;5043265;28;20284;-72
2023/08/21 15:40:15;;;;;;;4.50;4.13;;;34.10;99.90;;;;;;5042069;28;20194;-73
2023/08/21 15:42:43;;;;;;;4.45;4.13;;;34.00;99.90;;;;;;5045856;28;20698;-73
2023/08/21 15:45:10;;;;;;;5.10;4.60;;;33.80;99.90;;;;;;5045469;28;20222;-73
2023/08/21 15:47:38;;;;;;;4.85;4.38;;;33.60;99.90;;;;;;5038686;28;20207;-73
2023/08/21 15:50:07;;;;;;;4.28;3.97;;;33.50;99.90;;;;;;5039449;28;20317;-74
2023/08/21 15:52:34;;;;;;;5.60;5.07;;;33.20;99.90;;;;;;5025606;28;20310;-74
2023/08/21 15:55:01;;;;;;;5.10;4.70;;;32.90;99.90;;;;;;5025911;28;20232;-72
2023/08/21 15:57:28;;;;;;;5.15;4.65;;;32.50;99.90;;;;;;5043715;28;20235;-73
2023/08/21 15:59:55;;;;;;;8.13;5.50;;;32.20;99.90;;;;;;5020000;28;20290;-74
2023/08/21 16:02:22;;;;;;;5.75;5.18;;;32.00;99.90;;;;;;5044296;28;20207;-71
2023/08/21 16:10:03;;;;;;;5.80;5.40;;;31.70;99.90;;;;;;5228981;22;20230;-78
2023/08/21 16:12:30;;;;;;;6.07;5.57;;;31.70;99.90;;;;;;5052490;28;20218;-79
2023/08/21 16:14:57;;;;;;;5.85;5.35;;;31.70;99.90;;;;;;5054159;28;20264;-80
2023/08/21 16:17:24;;;;;;;5.88;5.43;;;31.70;99.90;;;;;;5057078;28;20222;-79
2023/08/21 16:19:52;;;;;;;6.03;5.43;;;31.60;99.90;;;;;;5060216;28;20771;-80
2023/08/21 16:22:19;;;;;;;5.75;5.25;;;31.60;99.90;;;;;;5062644;28;20650;-79
2023/08/21 16:24:46;;;;;;;5.90;5.28;;;31.50;99.90;;;;;;5056197;28;20260;-78
2023/08/21 16:27:15;;;;;;;6.25;5.75;;;31.40;99.90;;;;;;5060384;28;20233;-80
2023/08/21 16:29:42;;;;;;;8.07;6.85;;;31.40;99.90;;;;;;5063463;28;20680;-79
2023/08/21 16:32:09;;;;;;;6.97;6.47;;;31.40;99.90;;;;;;5060484;28;20222;-79
2023/08/21 16:34:36;;;;;;;7.07;6.50;;;31.50;99.90;;;;;;5057606;28;20195;-79
2023/08/21 16:37:03;;;;;;;6.47;5.97;;;31.50;99.90;;;;;;5056547;28;20275;-80
2023/08/21 16:39:32;;;;;;;9.45;7.85;;;31.40;99.90;;;;;;5058022;28;20202;-79
2023/08/21 16:41:59;;;;;;;7.57;6.88;;;31.50;99.90;;;;;;5056994;28;20660;-82
2023/08/21 16:44:28;;;;;;;7.57;6.88;;;31.50;99.90;;;;;;5055859;28;20198;-79
2023/08/21 16:46:58;;;;;;;7.70;7.10;;;31.50;99.90;;;;;;5055304;28;20592;-79
2023/08/21 16:49:24;;;;;;;7.90;7.20;;;31.60;99.90;;;;;;5048116;28;20195;-78
2023/08/21 16:51:51;;;;;;;7.75;7.15;;;31.60;99.90;;;;;;5049739;28;20238;-79
2023/08/21 16:54:19;;;;;;;8.25;7.55;;;31.60;99.90;;;;;;5053824;28;20247;-78
2023/08/21 16:56:45;;;;;;;9.07;8.38;;;31.60;99.90;;;;;;5051601;28;20222;-78
2023/08/21 16:59:12;;;;;;;9.63;8.15;;;31.70;99.90;;;;;;5058777;28;20217;-80
2023/08/21 17:01:41;;;;;;;8.70;7.90;;;31.80;99.90;;;;;;5057854;28;20570;-79
2023/08/21 17:04:08;;;;;;;8.77;8.07;;;31.80;99.90;;;;;;5056639;28;20232;-78
2023/08/21 17:06:35;;;;;;;8.30;7.70;;;31.80;99.90;;;;;;5054759;28;20248;-79
2023/08/21 17:09:04;;;;;;;9.65;8.70;;;31.80;99.90;;;;;;5060083;28;20206;-79
2023/08/21 17:11:31;;;;;;;8.75;8.05;;;31.80;99.90;;;;;;5058101;28;20221;-79
2023/08/21 17:13:58;;;;;;;9.93;8.60;;;31.80;99.90;;;;;;5060285;28;20202;-79
2023/08/21 17:16:25;;;;;;;9.57;8.75;;;31.80;99.90;;;;;;5060233;28;20595;-78
2023/08/21 17:18:53;;;;;;;8.73;7.90;;;31.80;99.90;;;;;;5065592;28;20244;-80
2023/08/21 17:21:20;;;;;;;8.65;7.85;;;31.80;99.90;;;;;;5063761;28;20187;-79
2023/08/21 17:23:47;;;;;;;9.07;8.27;;;31.70;99.90;;;;;;5067508;28;20206;-79
2023/08/21 17:29:04;;;;;;;8.98;8.07;;;31.70;99.90;;;;;;5070622;28;20205;-79
2023/08/21 17:31:55;;;;;;;9.27;8.38;;;31.70;99.90;;;;;;5049063;28;20263;-79
2023/08/21 17:34:24;;;;;;;7.72;7.13;;;31.70;99.90;;;;;;5060307;28;20191;-78